Home > Products > Valid Products > TAF

000
FTUS43 KTOP 201100
TAFTOP
TAF
KTOP 201120Z 2012/2112 19007KT P6SM SCT200
     FM210300 19005KT 6SM BR OVC014=



000
FTUS43 KTOP 201000 AAB
TAFTOP
TAF AMD
KTOP 201001Z 2010/2106 16004KT P6SM OVC017
     FM201145 20006KT P6SM SCT200=



000
FTUS43 KTOP 200700 AAA
TAFTOP
TAF AMD
KTOP 200749Z 2008/2106 16004KT P6SM OVC015
     FM201400 20005KT P6SM SCT015 SCT200=



000
FTUS43 KTOP 200700 AAA
TAFTOP
TAF AMD
KTOP 200749Z 2008/2106 16004KT P6SM OVC015
     FM201400 20005KT P6SM SCT015 SCT200=



000
FTUS43 KTOP 200500
TAFTOP
TAF
KTOP 200520Z 2006/2106 20002KT 6SM BR OVC013
     FM200900 VRB03KT 3SM BR BKN010
     FM201700 20005KT P6SM BKN015=



000
FTUS43 KTOP 192300
TAFTOP
TAF
KTOP 192324Z 2000/2024 20002KT 5SM BR OVC013
     FM200900 VRB03KT 3SM BR BKN008
     FM201700 20005KT P6SM BKN015=



000
FTUS43 KTOP 191700
TAFTOP
TAF
KTOP 191738Z 1918/2018 20002KT 4SM BR OVC008
      TEMPO 1920/1924 6SM BR SCT008 OVC013=



000
FTUS43 KTOP 191600 AAB
TAFTOP
TAF AMD
KTOP 191614Z 1916/2012 VRB02KT 4SM BR OVC005
     FM191800 14003KT 6SM BR OVC007
     FM192100 18004KT 6SM BR OVC013
     FM200200 17003KT 5SM BR OVC008=



000
FTUS43 KTOP 191300 AAA
TAFTOP
TAF AMD
KTOP 191322Z 1913/2012 VRB02KT 6SM BR OVC005
     FM191600 14003KT 6SM BR OVC007
     FM191900 18004KT 6SM BR OVC013
     FM200200 17003KT 5SM BR OVC008=



000
FTUS43 KTOP 191100
TAFTOP
TAF
KTOP 191120Z 1912/2012 VRB02KT 6SM BR OVC007
     FM191900 18004KT 6SM BR OVC013
     FM200200 17003KT 5SM BR OVC008=



000
FTUS43 KTOP 190900 AAA
TAFTOP
TAF AMD
KTOP 190910Z 1909/2006 00000KT 6SM BR OVC009
     FM192000 19004KT 6SM BR SCT008 OVC013=



000
FTUS43 KTOP 190500
TAFTOP
TAF
KTOP 190520Z 1906/2006 00000KT 6SM BR OVC009
      TEMPO 1910/1914 2SM BR OVC007
     FM192000 19004KT 6SM BR SCT008 OVC013=



000
FTUS43 KTOP 190300 AAA
TAFTOP
TAF AMD
KTOP 190337Z 1904/1924 00000KT 6SM BR OVC011
     FM191800 19004KT 6SM BR OVC015=



000
FTUS43 KTOP 190300 AAA
TAFTOP
TAF AMD
KTOP 190337Z 1904/1924 00000KT 6SM BR OVC011
     FM191800 19004KT 6SM BR OVC015=



000
FTUS43 KTOP 182300
TAFTOP
TAF
KTOP 182322Z 1900/1924 00000KT 2SM BR OVC009
     FM191800 19004KT 6SM BR OVC015=



000
FTUS43 KTOP 182100 AAA
TAFTOP
TAF AMD
KTOP 182121Z 1821/1918 08002KT 6SM BR OVC008
     FM190200 00000KT 2SM BR OVC008=



000
FTUS43 KTOP 181700
TAFTOP
TAF
KTOP 181725Z 1818/1918 08006KT 1 1/2SM BR OVC009
     FM182100 04003KT 4SM BR OVC011
     FM190100 00000KT 2SM BR OVC008=



000
FTUS43 KTOP 181400 AAA
TAFTOP
TAF AMD
KTOP 181426Z 1814/1912 08006KT 3SM -SN BR SCT008 OVC013
      TEMPO 1814/1816 1 1/2SM -SN BR OVC008
     FM181600 06004KT 3SM BR OVC012
     FM182000 00000KT 5SM BR OVC015=



000
FTUS43 KTOP 181100 CCA
TAFTOP
TAF COR
KTOP 181154Z 1812/1912 08006KT 3SM -SN BR OVC015
      TEMPO 1812/1814 1 1/2SM -SN SCT005
     FM181500 06004KT 3SM BR OVC010
     FM182000 00000KT 5SM BR OVC015=



000
FTUS43 KTOP 181100
TAFTOP
TAF
KTOP 181131Z 1812/1912 08006KT 3SM -SN BR FEW005 OVC015
     FM181500 06004KT 3SM BR OVC010
     FM182000 00000KT 5SM BR OVC015=



000
FTUS43 KTOP 180500
TAFTOP
TAF
KTOP 180538Z 1806/1906 09005KT 1SM -SN BR OVC005
     FM180900 08006KT 4SM -SN BR OVC005
     FM181300 06004KT 3SM BR OVC005
     FM181900 06003KT 6SM BR OVC015=



000
FTUS43 KTOP 180300 AAA
TAFTOP
TAF AMD
KTOP 180320Z 1803/1824 09003KT P6SM BKN025 OVC035
     FM180400 11005KT 4SM -SN BR OVC015
     FM180430 09005KT 1SM -SN BR OVC005
     FM180900 08006KT 4SM -SN BR OVC005=



000
FTUS43 KTOP 172300
TAFTOP
TAF
KTOP 172327Z 1800/1824 09004KT P6SM FEW015 OVC070
     FM180100 09003KT P6SM BKN025 OVC035
     FM180300 11005KT 4SM -SN BR OVC015
     FM180400 09005KT 1SM -SN BR OVC005
     FM180900 08006KT 4SM -SN BR OVC005=



000
FTUS43 KTOP 171700
TAFTOP
TAF
KTOP 171725Z 1718/1818 09004KT P6SM FEW015 OVC080
     FM180100 09003KT P6SM BKN025 OVC035
     FM180300 11005KT 4SM -SN BR OVC015
     FM180500 09005KT 1SM -SN BR OVC005
     FM180900 08006KT 4SM -SN BR OVC005=



    US Dept of Commerce
    National Oceanic and Atmospheric Administration
    National Weather Service
    1325 East West Highway
    Silver Spring, MD 20910
    Page Author: NWS Internet Services Team
Disclaimer
Information Quality
Credits
Glossary
Privacy Policy
Freedom of Information Act (FOIA)
About Us
Career Opportunities